Time;durP1;ratioP1;P1;durP2;ratioP2;P2;SDS_P1;SDS_P2;PMS_P1;PMS_P2;Temp;Humidity;BMP_temperature;BMP_pressure;BME280_temperature;BME280_humidity;BME280_pressure;Samples;Min_cycle;Max_cycle;Signal;HPM_P1;HPM_P2
2021/04/19 00:00:44;;;;;;;11.37;10.23;;;8.50;99.90;;;;;;5070636;28;20219;-57
2021/04/19 00:03:11;;;;;;;9.93;9.03;;;8.20;99.90;;;;;;5070328;28;20196;-56
2021/04/19 00:05:37;;;;;;;11.73;10.53;;;8.40;99.90;;;;;;5069649;28;20430;-57
2021/04/19 00:08:03;;;;;;;11.93;10.63;;;8.50;99.90;;;;;;5072569;28;20449;-56
2021/04/19 00:10:29;;;;;;;11.97;10.37;;;8.60;99.90;;;;;;5072693;28;20211;-57
2021/04/19 00:12:54;;;;;;;10.90;9.80;;;8.60;99.90;;;;;;5090763;28;20428;-56
2021/04/19 00:15:21;;;;;;;10.70;9.60;;;8.70;99.90;;;;;;5070331;28;20207;-56
2021/04/19 00:17:47;;;;;;;11.17;10.07;;;8.70;99.90;;;;;;5070416;28;20220;-58
2021/04/19 00:20:13;;;;;;;11.00;9.70;;;8.70;99.90;;;;;;5071361;28;20426;-56
2021/04/19 00:22:39;;;;;;;11.70;10.50;;;8.70;99.90;;;;;;5070898;28;20426;-57
2021/04/19 00:25:06;;;;;;;13.40;11.20;;;8.70;99.90;;;;;;5072916;28;20452;-57
2021/04/19 00:27:32;;;;;;;12.70;11.37;;;8.80;99.90;;;;;;5070822;28;20478;-56
2021/04/19 00:29:58;;;;;;;10.40;9.33;;;8.80;99.90;;;;;;5070037;28;20937;-57
2021/04/19 00:32:23;;;;;;;11.93;10.17;;;8.90;99.90;;;;;;5069793;28;20473;-56
2021/04/19 00:34:49;;;;;;;11.90;10.33;;;8.80;99.90;;;;;;5065253;28;20195;-57
2021/04/19 00:37:15;;;;;;;11.37;10.37;;;8.70;99.90;;;;;;5070491;28;20192;-57
2021/04/19 00:39:41;;;;;;;11.33;9.90;;;8.60;99.90;;;;;;5070262;28;20172;-57
2021/04/19 00:42:07;;;;;;;10.53;8.87;;;8.60;99.90;;;;;;5070329;28;20172;-58
2021/04/19 00:44:33;;;;;;;12.50;10.50;;;8.60;99.90;;;;;;5070314;28;20438;-58
2021/04/19 00:46:59;;;;;;;10.63;8.63;;;8.50;99.90;;;;;;5069326;28;20454;-57
2021/04/19 00:49:24;;;;;;;15.60;12.50;;;8.10;99.90;;;;;;5070265;28;20213;-57
2021/04/19 00:51:55;;;;;;;16.13;12.10;;;8.40;99.90;;;;;;5067510;28;20478;-58
2021/04/19 00:54:22;;;;;;;18.20;12.87;;;8.40;99.90;;;;;;5069944;28;20590;-58
2021/04/19 00:56:49;;;;;;;13.97;11.30;;;8.50;99.90;;;;;;5070741;28;20533;-57
2021/04/19 00:59:15;;;;;;;13.67;10.80;;;8.50;99.90;;;;;;5070165;28;20437;-57
2021/04/19 01:01:41;;;;;;;18.13;13.23;;;8.50;99.90;;;;;;5070473;28;20472;-57
2021/04/19 01:04:06;;;;;;;31.00;13.77;;;8.50;99.90;;;;;;5068689;28;20204;-58
2021/04/19 01:06:32;;;;;;;24.43;13.70;;;8.50;99.90;;;;;;5070327;28;20199;-57
2021/04/19 01:08:58;;;;;;;23.80;15.37;;;8.50;99.90;;;;;;5069339;28;20564;-57
2021/04/19 01:11:23;;;;;;;18.00;13.77;;;8.50;99.90;;;;;;5069260;28;20211;-57
2021/04/19 01:13:49;;;;;;;25.37;15.90;;;8.50;99.90;;;;;;5069976;28;20269;-57
2021/04/19 01:16:15;;;;;;;24.20;14.60;;;8.40;99.90;;;;;;5070138;28;20226;-57
2021/04/19 01:18:41;;;;;;;23.00;15.30;;;8.40;99.90;;;;;;5070294;28;20279;-57
2021/04/19 01:21:07;;;;;;;23.40;16.33;;;8.50;99.90;;;;;;5068492;28;20437;-57
2021/04/19 01:23:32;;;;;;;19.37;16.00;;;8.50;99.90;;;;;;5068588;28;20176;-57
2021/04/19 01:25:58;;;;;;;23.70;16.53;;;8.70;99.90;;;;;;5069581;28;20537;-58
2021/04/19 01:28:23;;;;;;;19.60;15.37;;;8.70;99.90;;;;;;5069644;28;20230;-58
2021/04/19 01:30:51;;;;;;;21.10;16.03;;;8.70;99.90;;;;;;5070418;28;20197;-57
2021/04/19 01:33:17;;;;;;;21.73;17.03;;;8.70;99.90;;;;;;5074034;28;20191;-57
2021/04/19 01:35:44;;;;;;;21.40;16.77;;;8.70;99.90;;;;;;5073955;28;20433;-56
2021/04/19 01:38:10;;;;;;;18.13;14.80;;;8.70;99.90;;;;;;5073862;28;20944;-56
2021/04/19 01:40:36;;;;;;;21.27;15.30;;;8.80;99.90;;;;;;5074086;28;20486;-57
2021/04/19 01:43:02;;;;;;;17.87;14.70;;;11.60;99.90;;;;;;5071981;28;20856;-55
2021/04/19 01:45:28;;;;;;;22.60;16.30;;;8.90;99.90;;;;;;5073707;28;20196;-56
2021/04/19 01:47:58;;;;;;;21.20;14.47;;;8.90;99.90;;;;;;5073748;28;20453;-57
2021/04/19 01:50:27;;;;;;;19.00;15.20;;;8.90;99.90;;;;;;5076726;28;20321;-57
2021/04/19 01:52:54;;;;;;;17.20;14.70;;;9.10;99.90;;;;;;5077567;28;20489;-56
2021/04/19 01:55:23;;;;;;;19.07;15.10;;;9.10;99.90;;;;;;5074103;28;20462;-59
2021/04/19 01:58:00;;;;;;;19.87;14.80;;;9.10;99.90;;;;;;5073339;28;20430;-56
2021/04/19 02:00:27;;;;;;;20.30;16.40;;;9.10;99.90;;;;;;5071544;28;20441;-56
2021/04/19 02:03:06;;;;;;;24.43;16.87;;;9.10;99.90;;;;;;5073355;28;20434;-56
2021/04/19 02:06:04;;;;;;;20.73;16.83;;;9.10;99.90;;;;;;5072148;28;20804;-57
2021/04/19 02:08:54;;;;;;;20.17;15.93;;;9.10;99.90;;;;;;5072262;28;21199;-57
2021/04/19 02:11:32;;;;;;;29.00;19.10;;;9.10;99.90;;;;;;5073119;28;20994;-56
2021/04/19 02:14:04;;;;;;;24.60;16.80;;;9.20;99.90;;;;;;5082980;28;20831;-56
2021/04/19 02:16:35;;;;;;;24.20;17.27;;;9.20;99.90;;;;;;5081161;28;20436;-56
2021/04/19 02:19:19;;;;;;;24.73;17.97;;;9.30;99.90;;;;;;5072986;28;20768;-56
2021/04/19 02:21:48;;;;;;;25.77;17.80;;;9.20;99.90;;;;;;5071930;28;20767;-58
2021/04/19 02:24:19;;;;;;;26.93;18.87;;;9.10;99.90;;;;;;5072618;28;20445;-57
2021/04/19 02:26:57;;;;;;;29.90;19.67;;;9.10;99.90;;;;;;5072773;28;20438;-56
2021/04/19 02:29:40;;;;;;;30.57;17.97;;;9.20;99.90;;;;;;5071389;28;20978;-56
2021/04/19 02:32:12;;;;;;;26.93;18.40;;;9.30;99.90;;;;;;5072991;28;20525;-57
2021/04/19 02:34:39;;;;;;;23.30;15.80;;;9.30;99.90;;;;;;5072564;28;20516;-56
2021/04/19 02:37:06;;;;;;;20.90;15.63;;;9.40;99.90;;;;;;5072294;28;20439;-57
2021/04/19 02:39:36;;;;;;;28.20;17.03;;;9.40;99.90;;;;;;5072509;28;20488;-57
2021/04/19 02:42:04;;;;;;;22.87;15.83;;;9.40;99.90;;;;;;5086332;28;20954;-56
2021/04/19 02:44:31;;;;;;;25.40;15.07;;;9.40;99.90;;;;;;5078517;28;20511;-57
2021/04/19 02:46:58;;;;;;;25.37;16.83;;;9.30;99.90;;;;;;5072796;28;20529;-57
2021/04/19 02:49:30;;;;;;;25.90;18.00;;;9.30;99.90;;;;;;5070760;28;20439;-58
2021/04/19 02:51:56;;;;;;;25.63;15.80;;;9.30;99.90;;;;;;5072518;28;20459;-57
2021/04/19 02:54:22;;;;;;;46.53;17.60;;;9.20;99.90;;;;;;5074574;28;20441;-56
2021/04/19 02:56:50;;;;;;;25.57;18.27;;;9.30;99.90;;;;;;5072168;28;20454;-58
2021/04/19 02:59:18;;;;;;;25.53;16.73;;;9.20;99.90;;;;;;5071076;28;20437;-56
2021/04/19 03:01:46;;;;;;;63.53;18.70;;;9.10;99.90;;;;;;5072235;28;20439;-56
2021/04/19 03:04:15;;;;;;;27.80;18.57;;;9.00;99.90;;;;;;5072118;28;20547;-56
2021/04/19 03:06:43;;;;;;;27.40;17.33;;;8.90;99.90;;;;;;5071553;28;20442;-56
2021/04/19 03:09:11;;;;;;;34.97;16.87;;;8.90;99.90;;;;;;5072178;28;20462;-58
2021/04/19 03:11:49;;;;;;;29.73;17.37;;;9.00;99.90;;;;;;5072063;28;20514;-57
2021/04/19 03:14:16;;;;;;;27.87;17.03;;;9.00;99.90;;;;;;5070736;28;21133;-56
2021/04/19 03:16:54;;;;;;;30.27;17.47;;;9.00;99.90;;;;;;5071980;28;20524;-57
2021/04/19 03:19:25;;;;;;;30.10;17.27;;;9.00;99.90;;;;;;5070764;28;20545;-56
2021/04/19 03:21:52;;;;;;;31.50;17.43;;;8.90;99.90;;;;;;5066054;28;20541;-57
2021/04/19 03:24:20;;;;;;;31.20;17.37;;;8.80;99.90;;;;;;5071837;28;20434;-57
2021/04/19 03:26:45;;;;;;;33.10;18.37;;;8.90;99.90;;;;;;5067814;28;20453;-56
2021/04/19 03:29:11;;;;;;;40.17;19.50;;;9.00;99.90;;;;;;5071610;28;20465;-56
2021/04/19 03:31:46;;;;;;;29.17;17.60;;;9.00;99.90;;;;;;5069784;28;20691;-58
2021/04/19 03:34:15;;;;;;;53.67;18.00;;;9.10;99.90;;;;;;5091802;28;20480;-56
2021/04/19 03:36:42;;;;;;;40.03;16.97;;;8.90;99.90;;;;;;5069882;28;20537;-57
2021/04/19 03:39:09;;;;;;;41.27;19.50;;;8.70;99.90;;;;;;5070686;28;20488;-56
2021/04/19 03:41:39;;;;;;;41.67;20.13;;;8.70;99.90;;;;;;5069628;28;20765;-56
2021/04/19 03:44:08;;;;;;;28.90;18.80;;;8.70;99.90;;;;;;5071274;28;20441;-56
2021/04/19 03:46:36;;;;;;;39.00;18.27;;;9.60;99.90;;;;;;5069670;28;20551;-56
2021/04/19 03:49:21;;;;;;;27.10;16.50;;;8.70;99.90;;;;;;5069555;28;20541;-57
2021/04/19 03:51:47;;;;;;;29.13;17.80;;;8.80;99.90;;;;;;5071213;28;20508;-56
2021/04/19 03:54:14;;;;;;;25.83;15.73;;;8.80;99.90;;;;;;5071965;28;20538;-57
2021/04/19 03:56:40;;;;;;;25.63;16.97;;;8.70;99.90;;;;;;5069667;28;20205;-55
2021/04/19 03:59:11;;;;;;;28.00;18.00;;;8.70;99.90;;;;;;5070900;28;20438;-55
2021/04/19 04:01:39;;;;;;;28.70;16.60;;;8.80;99.90;;;;;;5068305;28;20443;-57
2021/04/19 04:04:05;;;;;;;26.47;17.80;;;8.90;99.90;;;;;;5069387;28;21037;-58
2021/04/19 04:06:31;;;;;;;25.13;16.77;;;8.80;99.90;;;;;;5069417;28;20854;-57
2021/04/19 04:08:58;;;;;;;23.90;16.60;;;8.90;99.90;;;;;;5065532;28;20441;-57
2021/04/19 04:11:25;;;;;;;25.67;16.03;;;8.90;99.90;;;;;;5071072;28;20992;-56
2021/04/19 04:13:51;;;;;;;24.97;16.60;;;8.90;99.90;;;;;;5070311;28;20439;-57
2021/04/19 04:16:17;;;;;;;25.03;16.37;;;8.90;99.90;;;;;;5068226;28;20959;-56
2021/04/19 04:18:42;;;;;;;24.20;16.33;;;9.00;99.90;;;;;;5070457;28;20202;-56
2021/04/19 04:21:08;;;;;;;25.97;17.20;;;9.10;99.90;;;;;;5070098;28;20439;-58
2021/04/19 04:23:35;;;;;;;23.57;17.30;;;9.10;99.90;;;;;;5075909;28;20177;-60
2021/04/19 04:26:02;;;;;;;28.87;18.30;;;9.00;99.90;;;;;;5071234;28;20867;-60
2021/04/19 04:28:27;;;;;;;25.73;16.60;;;9.10;99.90;;;;;;5068870;28;20553;-60
2021/04/19 04:30:53;;;;;;;24.67;15.87;;;9.00;99.90;;;;;;5070417;28;20553;-59
2021/04/19 04:33:18;;;;;;;25.70;16.40;;;9.00;99.90;;;;;;5070294;28;20181;-58
2021/04/19 04:35:44;;;;;;;28.73;19.50;;;9.00;99.90;;;;;;5070611;28;20261;-60
2021/04/19 04:38:10;;;;;;;29.90;16.73;;;9.00;99.90;;;;;;5069964;28;20937;-59
2021/04/19 04:40:35;;;;;;;27.80;17.93;;;9.00;99.90;;;;;;5070267;28;20183;-60
2021/04/19 04:43:06;;;;;;;27.10;18.10;;;9.00;99.90;;;;;;5069953;28;20193;-60
2021/04/19 04:45:32;;;;;;;28.43;17.33;;;9.00;99.90;;;;;;5070294;28;20186;-59
2021/04/19 04:48:06;;;;;;;27.07;15.43;;;8.90;99.90;;;;;;5070128;28;20430;-56
2021/04/19 04:50:41;;;;;;;25.43;16.53;;;8.90;99.90;;;;;;5070173;28;20457;-56
2021/04/19 04:53:12;;;;;;;30.53;16.10;;;8.90;99.90;;;;;;5068783;28;20448;-57
2021/04/19 04:55:39;;;;;;;26.47;15.33;;;8.90;99.90;;;;;;5070295;28;20856;-57
2021/04/19 04:58:06;;;;;;;59.03;18.90;;;9.00;99.90;;;;;;5079948;28;20522;-56
2021/04/19 05:00:34;;;;;;;21.80;15.10;;;9.10;99.90;;;;;;5085765;28;20481;-57
2021/04/19 05:03:01;;;;;;;27.70;17.10;;;9.00;99.90;;;;;;5070392;28;20901;-56
2021/04/19 05:05:27;;;;;;;25.60;17.20;;;9.00;99.90;;;;;;5087245;28;20513;-57
2021/04/19 05:07:54;;;;;;;24.63;16.00;;;9.20;99.90;;;;;;5090152;28;20568;-57
2021/04/19 05:10:20;;;;;;;30.00;21.53;;;9.30;99.90;;;;;;5089964;28;20433;-56
2021/04/19 05:12:45;;;;;;;22.43;15.10;;;9.40;99.90;;;;;;5076501;28;20457;-57
2021/04/19 05:15:14;;;;;;;21.60;14.43;;;9.40;99.90;;;;;;5069602;28;20433;-57
2021/04/19 05:17:44;;;;;;;24.10;15.43;;;9.50;99.90;;;;;;5069897;28;20180;-56
2021/04/19 05:20:12;;;;;;;21.37;14.43;;;9.40;99.90;;;;;;5069487;28;20583;-57
2021/04/19 05:22:38;;;;;;;20.93;13.77;;;9.40;99.90;;;;;;5069269;28;20441;-56
2021/04/19 05:25:04;;;;;;;23.90;15.17;;;9.50;99.90;;;;;;5069854;28;20439;-56
2021/04/19 05:27:31;;;;;;;23.93;15.17;;;9.30;99.90;;;;;;5068114;28;20739;-56
2021/04/19 05:29:57;;;;;;;21.67;15.03;;;9.60;99.90;;;;;;5069251;28;20441;-57
2021/04/19 05:32:23;;;;;;;20.80;14.80;;;9.50;99.90;;;;;;5069782;28;20462;-59
2021/04/19 05:34:49;;;;;;;28.80;16.60;;;9.40;99.90;;;;;;5069820;28;20464;-57
2021/04/19 05:37:19;;;;;;;27.83;17.73;;;9.30;99.90;;;;;;5072437;28;20171;-58
2021/04/19 05:39:46;;;;;;;26.13;16.30;;;9.40;99.90;;;;;;5067634;28;20434;-57
2021/04/19 05:42:14;;;;;;;24.53;16.47;;;9.40;99.90;;;;;;5069449;28;20441;-56
2021/04/19 05:44:40;;;;;;;26.03;16.73;;;9.50;99.90;;;;;;5069293;28;20520;-58
2021/04/19 05:47:06;;;;;;;29.73;17.90;;;9.70;99.90;;;;;;5069660;28;20476;-57
2021/04/19 05:49:32;;;;;;;27.40;16.30;;;9.80;99.90;;;;;;5069797;28;21013;-58
2021/04/19 05:52:00;;;;;;;26.47;16.63;;;9.80;99.90;;;;;;5069153;28;20557;-58
2021/04/19 05:54:26;;;;;;;24.80;17.47;;;9.90;99.90;;;;;;5069432;28;20578;-57
2021/04/19 05:57:11;;;;;;;28.50;17.70;;;10.00;99.90;;;;;;5068994;28;20492;-57
2021/04/19 05:59:58;;;;;;;24.47;16.03;;;10.00;99.90;;;;;;5068204;28;20473;-59
2021/04/19 06:02:50;;;;;;;24.80;16.77;;;10.20;99.90;;;;;;5068643;28;20807;-56
2021/04/19 06:05:41;;;;;;;22.50;16.20;;;10.20;99.90;;;;;;5067925;28;20568;-56
2021/04/19 06:08:18;;;;;;;24.53;16.90;;;10.30;99.90;;;;;;5069208;28;20783;-57
2021/04/19 06:10:48;;;;;;;29.37;17.97;;;10.30;99.90;;;;;;5068214;28;20462;-58
2021/04/19 06:13:19;;;;;;;24.10;17.00;;;10.40;99.90;;;;;;5066052;28;20787;-57
2021/04/19 06:15:52;;;;;;;25.60;17.50;;;10.80;99.90;;;;;;5067904;28;20445;-57
2021/04/19 06:18:21;;;;;;;24.50;16.33;;;10.80;99.90;;;;;;5071897;28;20442;-58
2021/04/19 06:20:55;;;;;;;24.87;18.10;;;10.90;99.90;;;;;;5072233;28;20454;-56
2021/04/19 06:23:24;;;;;;;29.63;17.80;;;11.00;99.90;;;;;;5072521;28;20443;-56
2021/04/19 06:25:51;;;;;;;25.07;18.10;;;11.20;99.90;;;;;;5072623;28;20498;-57
2021/04/19 06:28:17;;;;;;;25.43;18.10;;;11.10;99.90;;;;;;5071643;28;20520;-57
2021/04/19 06:30:47;;;;;;;28.90;18.83;;;11.20;99.90;;;;;;5072510;28;20471;-58
2021/04/19 06:33:15;;;;;;;27.13;18.13;;;11.40;99.90;;;;;;5071203;28;20186;-56
2021/04/19 06:35:41;;;;;;;25.03;17.50;;;11.70;99.90;;;;;;5072177;28;20432;-58
2021/04/19 06:38:07;;;;;;;26.57;17.60;;;11.90;99.90;;;;;;5072637;28;20500;-57
2021/04/19 06:40:43;;;;;;;25.13;19.00;;;11.90;99.90;;;;;;5072005;28;20440;-57
2021/04/19 06:43:09;;;;;;;24.50;17.90;;;11.90;99.90;;;;;;5071505;28;20581;-57
2021/04/19 06:45:37;;;;;;;25.97;17.27;;;12.00;99.90;;;;;;5072389;28;20437;-57
2021/04/19 06:48:06;;;;;;;22.93;16.10;;;12.10;59.40;;;;;;5086515;28;20362;-57
2021/04/19 06:50:32;;;;;;;24.97;17.20;;;11.90;74.90;;;;;;5080119;28;20492;-59
2021/04/19 06:52:59;;;;;;;22.37;15.83;;;11.70;80.90;;;;;;5072049;28;20432;-58
2021/04/19 06:55:25;;;;;;;21.63;16.10;;;11.70;84.40;;;;;;5072000;28;20537;-57
2021/04/19 06:57:56;;;;;;;23.70;17.00;;;11.80;85.10;;;;;;5072083;28;20796;-59
2021/04/19 07:00:23;;;;;;;21.00;15.73;;;11.60;91.20;;;;;;5071398;28;20934;-57
2021/04/19 07:02:50;;;;;;;19.33;15.43;;;11.40;99.90;;;;;;5071721;28;20820;-58
2021/04/19 07:05:24;;;;;;;20.30;15.10;;;11.40;99.90;;;;;;5071825;28;20530;-57
2021/04/19 07:08:04;;;;;;;23.47;17.63;;;11.40;99.90;;;;;;5070582;28;20544;-57
2021/04/19 07:10:33;;;;;;;22.73;16.90;;;11.60;99.90;;;;;;5070918;28;20501;-57
2021/04/19 07:13:07;;;;;;;22.10;16.90;;;11.70;96.00;;;;;;5071908;28;20430;-56
2021/04/19 07:15:33;;;;;;;20.47;15.93;;;11.70;99.10;;;;;;5071764;28;20507;-57
2021/04/19 07:17:59;;;;;;;23.73;16.63;;;11.70;99.90;;;;;;5070429;28;20829;-56
2021/04/19 07:20:24;;;;;;;24.50;18.00;;;11.90;99.90;;;;;;5075732;28;20526;-58
2021/04/19 07:22:50;;;;;;;23.30;17.73;;;12.10;86.60;;;;;;5091923;28;20209;-58
2021/04/19 07:25:15;;;;;;;27.63;18.33;;;12.30;79.70;;;;;;5090487;28;20177;-57
2021/04/19 07:27:41;;;;;;;23.50;17.57;;;12.50;58.40;;;;;;5074607;28;20225;-58
2021/04/19 07:30:09;;;;;;;21.77;17.07;;;12.90;28.50;;;;;;5069967;28;20186;-57
2021/04/19 07:32:36;;;;;;;22.13;17.17;;;13.40;1.00;;;;;;5069851;28;20241;-56
2021/04/19 07:35:05;;;;;;;21.67;17.67;;;13.20;1.00;;;;;;5070116;28;20445;-57
2021/04/19 07:37:32;;;;;;;21.20;16.80;;;13.00;1.00;;;;;;5070878;28;20514;-58
2021/04/19 07:39:57;;;;;;;26.00;17.30;;;13.00;1.00;;;;;;5071062;28;20455;-57
2021/04/19 07:42:23;;;;;;;20.73;17.60;;;12.90;1.00;;;;;;5071601;28;20441;-58
2021/04/19 07:44:53;;;;;;;21.03;16.60;;;13.20;1.00;;;;;;5071028;28;20217;-58
2021/04/19 07:47:32;;;;;;;24.67;17.43;;;13.30;1.00;;;;;;5070643;28;20293;-56
2021/04/19 07:50:00;;;;;;;22.87;19.07;;;13.30;1.00;;;;;;5067509;28;20470;-57
2021/04/19 07:52:28;;;;;;;27.10;19.07;;;13.40;1.00;;;;;;5078135;28;20471;-56
2021/04/19 07:55:08;;;;;;;23.40;18.33;;;13.40;1.00;;;;;;5071150;28;20434;-58
2021/04/19 07:57:34;;;;;;;23.80;18.53;;;13.60;1.00;;;;;;5070608;28;20440;-59
2021/04/19 07:59:59;;;;;;;24.27;19.83;;;13.80;1.00;;;;;;5070640;28;20452;-57
2021/04/19 08:02:25;;;;;;;23.73;19.20;;;14.00;1.00;;;;;;5070388;28;20870;-55
2021/04/19 08:04:52;;;;;;;23.97;19.87;;;14.20;1.00;;;;;;5070719;28;20229;-57
2021/04/19 08:07:20;;;;;;;28.30;21.17;;;14.20;1.00;;;;;;5070801;28;20183;-58
2021/04/19 08:09:54;;;;;;;26.50;20.97;;;14.40;1.00;;;;;;5070758;28;20480;-56
2021/04/19 08:12:34;;;;;;;24.20;20.97;;;14.60;1.00;;;;;;5070569;28;20496;-58
2021/04/19 08:15:02;;;;;;;27.63;23.20;;;14.60;1.00;;;;;;5070620;28;21870;-57
2021/04/19 08:17:31;;;;;;;25.93;20.97;;;14.20;1.00;;;;;;5070671;28;20905;-56
2021/04/19 08:19:58;;;;;;;23.60;18.30;;;13.70;1.00;;;;;;5070507;28;20437;-57
2021/04/19 08:22:28;;;;;;;25.73;21.20;;;13.20;1.00;;;;;;5069169;28;20437;-56
2021/04/19 08:25:20;;;;;;;30.00;21.80;;;13.20;1.00;;;;;;5070148;28;20585;-55
2021/04/19 08:28:07;;;;;;;27.57;21.80;;;13.20;1.00;;;;;;5069873;28;20456;-58
2021/04/19 08:30:33;;;;;;;27.30;20.53;;;13.60;1.00;;;;;;5078299;28;20448;-57
2021/04/19 08:33:00;;;;;;;28.67;21.17;;;14.00;1.00;;;;;;5078281;28;20442;-57
2021/04/19 08:35:26;;;;;;;27.30;23.67;;;14.30;1.00;;;;;;5071870;28;20485;-56
2021/04/19 08:37:55;;;;;;;29.20;22.60;;;14.30;1.00;;;;;;5068453;28;20495;-57
2021/04/19 08:40:21;;;;;;;25.50;20.67;;;14.30;1.00;;;;;;5063384;28;20448;-57
2021/04/19 08:42:47;;;;;;;30.87;22.77;;;14.20;1.00;;;;;;5067224;28;20452;-57
2021/04/19 08:45:13;;;;;;;28.10;21.53;;;14.10;1.00;;;;;;5070314;28;20433;-58
2021/04/19 08:47:39;;;;;;;24.23;19.87;;;13.90;1.00;;;;;;5070012;28;20836;-57
2021/04/19 08:50:09;;;;;;;28.00;21.00;;;14.30;1.00;;;;;;5066787;28;20960;-58
2021/04/19 08:52:36;;;;;;;27.77;21.90;;;14.40;1.00;;;;;;5066751;28;20831;-58
2021/04/19 08:55:06;;;;;;;24.93;20.17;;;14.50;1.00;;;;;;5068422;28;20449;-56
2021/04/19 08:57:34;;;;;;;28.10;22.13;;;14.60;1.00;;;;;;5089882;28;20986;-58
2021/04/19 08:59:59;;;;;;;27.47;21.57;;;14.70;1.00;;;;;;5069755;28;20449;-57
2021/04/19 09:02:26;;;;;;;26.73;21.70;;;14.70;1.00;;;;;;5090342;28;20470;-57
2021/04/19 09:05:12;;;;;;;24.33;19.43;;;14.70;1.00;;;;;;5089837;28;20907;-57
2021/04/19 09:07:41;;;;;;;24.13;19.87;;;14.50;1.00;;;;;;5073042;28;20570;-58
2021/04/19 09:10:13;;;;;;;26.90;21.20;;;14.40;1.00;;;;;;5071577;28;20433;-57
2021/04/19 09:12:39;;;;;;;27.67;20.27;;;14.20;1.00;;;;;;5068500;28;20475;-58
2021/04/19 09:15:10;;;;;;;28.80;20.80;;;14.20;1.00;;;;;;5081014;28;20432;-57
2021/04/19 09:17:39;;;;;;;25.53;20.83;;;14.20;1.00;;;;;;5090152;28;20537;-58
2021/04/19 09:20:08;;;;;;;22.73;19.57;;;14.20;1.00;;;;;;5089871;28;20536;-59
2021/04/19 09:22:35;;;;;;;26.37;20.80;;;14.10;1.00;;;;;;5079484;28;20464;-58
2021/04/19 09:25:10;;;;;;;25.90;20.43;;;13.90;1.00;;;;;;5073430;28;20419;-59
2021/04/19 09:27:56;;;;;;;25.30;20.63;;;13.70;1.00;;;;;;5069422;28;20555;-57
2021/04/19 09:30:27;;;;;;;25.27;20.10;;;13.60;1.00;;;;;;5069067;28;20454;-57
2021/04/19 09:33:15;;;;;;;27.23;20.23;;;13.50;1.00;;;;;;5069598;28;20436;-58
2021/04/19 09:35:41;;;;;;;28.27;18.93;;;13.10;1.00;;;;;;5069409;28;20975;-59
2021/04/19 09:38:11;;;;;;;29.00;20.33;;;13.30;1.00;;;;;;5067546;28;20428;-57
2021/04/19 09:40:49;;;;;;;25.40;18.70;;;13.50;1.00;;;;;;5068354;28;20440;-57
2021/04/19 09:43:35;;;;;;;26.43;18.80;;;13.70;1.00;;;;;;5069553;28;20431;-57
2021/04/19 09:46:17;;;;;;;23.33;18.27;;;14.10;1.00;;;;;;5068125;28;20433;-57
2021/04/19 09:48:44;;;;;;;25.30;20.27;;;14.40;1.00;;;;;;5069231;28;20472;-57
2021/04/19 09:51:13;;;;;;;28.20;20.57;;;14.50;1.00;;;;;;5069196;28;20457;-56
2021/04/19 09:53:44;;;;;;;20.70;17.47;;;14.70;1.00;;;;;;5073251;28;20487;-57
2021/04/19 09:56:10;;;;;;;23.10;18.87;;;15.00;1.00;;;;;;5073374;28;20436;-58
2021/04/19 09:58:40;;;;;;;23.73;18.60;;;15.10;1.00;;;;;;5071888;28;20464;-58
2021/04/19 10:01:06;;;;;;;23.93;17.73;;;15.10;1.00;;;;;;5072556;28;20179;-57
2021/04/19 10:03:33;;;;;;;22.43;16.90;;;15.00;1.00;;;;;;5073006;28;20445;-60
2021/04/19 10:06:03;;;;;;;20.90;18.57;;;15.40;1.00;;;;;;5073351;28;20470;-58
2021/04/19 10:08:40;;;;;;;23.60;18.77;;;16.00;1.00;;;;;;5073017;28;20441;-58
2021/04/19 10:11:06;;;;;;;24.27;20.53;;;16.50;1.00;;;;;;5073173;28;20949;-57
2021/04/19 10:13:36;;;;;;;21.27;17.80;;;16.90;1.00;;;;;;5071474;28;21027;-59
2021/04/19 10:16:10;;;;;;;24.07;18.90;;;17.00;1.00;;;;;;5073310;28;20440;-57
2021/04/19 10:18:38;;;;;;;21.90;18.47;;;16.90;1.00;;;;;;5072758;28;20437;-57
2021/04/19 10:21:06;;;;;;;23.20;19.07;;;17.10;1.00;;;;;;5072662;28;20434;-57
2021/04/19 10:23:41;;;;;;;20.07;17.83;;;17.40;1.00;;;;;;5071727;28;20894;-58
2021/04/19 10:26:10;;;;;;;22.53;18.50;;;17.10;1.00;;;;;;5072864;28;20904;-57
2021/04/19 10:28:40;;;;;;;23.77;18.37;;;16.80;1.00;;;;;;5071210;28;20526;-59
2021/04/19 10:31:09;;;;;;;19.13;16.27;;;17.00;1.00;;;;;;5071286;28;20983;-58
2021/04/19 10:33:35;;;;;;;19.93;17.20;;;16.70;1.00;;;;;;5072369;28;20520;-58
2021/04/19 10:36:12;;;;;;;20.80;16.13;;;16.40;1.00;;;;;;5072833;28;21011;-58
2021/04/19 10:38:39;;;;;;;19.60;15.70;;;16.30;1.00;;;;;;5070899;28;20171;-58
2021/04/19 10:41:05;;;;;;;20.80;15.83;;;16.00;1.00;;;;;;5072114;28;20861;-58
2021/04/19 10:43:31;;;;;;;21.60;17.37;;;16.10;1.00;;;;;;5072405;28;20434;-58
2021/04/19 10:45:56;;;;;;;21.87;17.67;;;16.20;1.00;;;;;;5071951;28;20445;-57
2021/04/19 10:48:24;;;;;;;23.93;16.87;;;16.30;1.00;;;;;;5072061;28;20183;-57
2021/04/19 10:50:52;;;;;;;20.97;15.10;;;16.40;1.00;;;;;;5070691;28;20540;-57
2021/04/19 10:53:33;;;;;;;20.13;16.20;;;16.30;1.00;;;;;;5070923;28;20458;-59
2021/04/19 10:56:00;;;;;;;19.63;17.10;;;16.40;1.00;;;;;;5072052;28;20422;-58
2021/04/19 10:58:29;;;;;;;18.43;15.73;;;16.60;1.00;;;;;;5071076;28;20437;-58
2021/04/19 11:00:55;;;;;;;18.53;15.13;;;16.50;1.00;;;;;;5072060;28;20815;-57
2021/04/19 11:03:21;;;;;;;21.70;16.20;;;16.20;1.00;;;;;;5071340;28;20920;-56
2021/04/19 11:05:47;;;;;;;19.40;15.53;;;16.10;1.00;;;;;;5070513;28;20454;-57
2021/04/19 11:08:12;;;;;;;18.87;15.23;;;15.80;1.00;;;;;;5070284;28;21032;-58
2021/04/19 11:10:38;;;;;;;25.83;19.10;;;15.90;1.00;;;;;;5070708;28;20249;-59
2021/04/19 11:13:09;;;;;;;22.27;17.90;;;15.90;1.00;;;;;;5070653;28;20567;-57
2021/04/19 11:15:39;;;;;;;21.00;17.20;;;15.60;1.00;;;;;;5072271;28;20254;-59
2021/04/19 11:18:20;;;;;;;19.10;15.43;;;15.40;1.00;;;;;;5070266;28;20857;-58
2021/04/19 11:20:48;;;;;;;20.77;16.90;;;15.30;1.00;;;;;;5071433;28;20791;-57
2021/04/19 11:23:26;;;;;;;18.60;15.90;;;15.80;1.00;;;;;;5070761;28;20521;-59
2021/04/19 11:25:53;;;;;;;20.27;16.07;;;16.20;1.00;;;;;;5072202;28;20448;-59
2021/04/19 11:28:30;;;;;;;19.17;15.63;;;16.60;1.00;;;;;;5071531;28;20464;-57
2021/04/19 11:30:57;;;;;;;18.40;15.93;;;17.10;1.00;;;;;;5071987;28;20820;-58
2021/04/19 11:33:25;;;;;;;18.57;14.90;;;17.40;1.00;;;;;;5071737;28;20437;-57
2021/04/19 11:36:02;;;;;;;20.00;16.40;;;18.00;1.00;;;;;;5089686;28;20421;-57
2021/04/19 11:38:28;;;;;;;18.90;16.23;;;18.20;1.00;;;;;;5090351;28;21008;-59
2021/04/19 11:41:00;;;;;;;20.50;16.60;;;18.40;1.00;;;;;;5091848;28;20475;-57
2021/04/19 11:43:27;;;;;;;19.73;16.07;;;18.20;1.00;;;;;;5091614;28;20433;-59
2021/04/19 11:46:14;;;;;;;18.10;15.90;;;18.20;1.00;;;;;;5091537;28;20825;-57
2021/04/19 11:48:42;;;;;;;18.80;15.70;;;17.60;1.00;;;;;;5068878;28;20476;-57
2021/04/19 11:51:09;;;;;;;19.27;15.87;;;17.40;1.00;;;;;;5070905;28;20512;-57
2021/04/19 11:53:37;;;;;;;19.10;15.13;;;17.30;1.00;;;;;;5070178;28;20484;-58
2021/04/19 11:56:04;;;;;;;16.07;14.23;;;17.30;1.00;;;;;;5069879;28;20503;-57
2021/04/19 11:58:31;;;;;;;16.73;14.23;;;17.10;1.00;;;;;;5071108;28;20463;-58
2021/04/19 12:00:57;;;;;;;17.20;14.33;;;16.60;1.00;;;;;;5071158;28;20472;-58
2021/04/19 12:03:23;;;;;;;20.00;15.37;;;16.80;1.00;;;;;;5070871;28;20911;-58
2021/04/19 12:05:49;;;;;;;18.60;15.87;;;16.80;1.00;;;;;;5071186;28;20180;-57
2021/04/19 12:08:15;;;;;;;18.90;15.97;;;16.90;1.00;;;;;;5090558;28;20190;-58
2021/04/19 12:10:41;;;;;;;23.10;16.43;;;16.90;1.00;;;;;;5091266;28;20444;-58
2021/04/19 12:13:13;;;;;;;19.57;15.50;;;16.90;1.00;;;;;;5091284;28;20248;-57
2021/04/19 12:15:40;;;;;;;21.33;16.13;;;19.30;1.00;;;;;;5088663;28;20979;-57
2021/04/19 12:18:05;;;;;;;17.87;14.90;;;17.30;1.00;;;;;;5069215;28;20507;-57
2021/04/19 12:20:31;;;;;;;17.80;14.60;;;17.70;1.00;;;;;;5069226;28;20441;-57
2021/04/19 12:22:56;;;;;;;19.53;16.23;;;17.90;1.00;;;;;;5070680;28;20179;-58
2021/04/19 12:25:22;;;;;;;17.70;15.13;;;17.80;1.00;;;;;;5070766;28;20799;-58
2021/04/19 12:27:48;;;;;;;18.23;15.40;;;;;;;;;;5070142;28;20223;-57
2021/04/19 12:30:14;;;;;;;16.00;14.30;;;17.60;1.00;;;;;;5070451;28;20482;-58
2021/04/19 12:32:40;;;;;;;21.87;16.23;;;17.40;1.00;;;;;;5069370;28;20473;-58
2021/04/19 12:35:06;;;;;;;17.93;15.00;;;17.10;1.00;;;;;;5070810;28;20528;-57
2021/04/19 12:37:32;;;;;;;19.30;15.10;;;17.20;1.00;;;;;;5070433;28;20179;-57
2021/04/19 12:39:57;;;;;;;17.80;14.17;;;16.90;1.00;;;;;;5070599;28;20487;-58
2021/04/19 12:42:23;;;;;;;18.63;14.87;;;17.10;1.00;;;;;;5069338;28;20266;-57
2021/04/19 12:44:48;;;;;;;16.83;15.07;;;17.20;1.00;;;;;;5068692;28;20540;-57